Time;durP1;ratioP1;P1;durP2;ratioP2;P2;SDS_P1;SDS_P2;PMS_P1;PMS_P2;Temp;Humidity;BMP_temperature;BMP_pressure;BME280_temperature;BME280_humidity;BME280_pressure;Samples;Min_cycle;Max_cycle;Signal;HPM_P1;HPM_P2
2024/04/06 00:01:57;;;;;;;;;;;;;;;13.16;100.00;100753.47;5072807;28;19920;-72
2024/04/06 00:04:23;;;;;;;;;;;;;;;13.10;100.00;100751.59;5073228;28;19959;-71
2024/04/06 00:06:48;;;;;;;;;;;;;;;13.06;100.00;100753.06;5072945;28;20605;-72
2024/04/06 00:09:13;;;;;;;;;;;;;;;13.08;100.00;100753.69;5073207;28;19924;-72
2024/04/06 00:11:39;;;;;;;;;;;;;;;13.02;100.00;100751.88;5073623;28;19919;-72
2024/04/06 00:14:04;;;;;;;;;;;;;;;13.00;100.00;100756.66;5073406;28;19917;-72
2024/04/06 00:16:29;;;;;;;;;;;;;;;12.98;100.00;100748.75;5072538;28;19916;-72
2024/04/06 00:18:54;;;;;;;;;;;;;;;12.89;100.00;100752.75;5055724;28;20386;-72
2024/04/06 00:21:19;;;;;;;;;;;;;;;12.91;100.00;100756.09;5072992;28;20351;-72
2024/04/06 00:23:45;;;;;;;;;;;;;;;12.85;100.00;100757.78;5072544;28;20540;-72
2024/04/06 00:26:10;;;;;;;;;;;;;;;12.85;100.00;100752.38;5072336;28;19916;-73
2024/04/06 00:28:35;;;;;;;;;;;;;;;12.84;100.00;100755.28;5071762;28;19923;-73
2024/04/06 00:31:01;;;;;;;;;;;;;;;12.81;100.00;100745.72;5073187;28;20287;-73
2024/04/06 00:33:26;;;;;;;;;;;;;;;12.78;100.00;100748.84;5072629;28;19923;-73
2024/04/06 00:35:51;;;;;;;;;;;;;;;12.74;100.00;100745.75;5072968;28;20370;-73
2024/04/06 00:38:17;;;;;;;;;;;;;;;12.70;100.00;100762.63;5072523;28;20341;-73
2024/04/06 00:40:42;;;;;;;;;;;;;;;12.67;100.00;100761.16;5072265;28;19913;-73
2024/04/06 00:43:07;;;;;;;;;;;;;;;12.65;100.00;100763.22;5073207;28;19947;-73
2024/04/06 00:45:32;;;;;;;;;;;;;;;12.64;100.00;100769.69;5054935;28;19917;-72
2024/04/06 00:47:57;;;;;;;;;;;;;;;12.60;100.00;100771.16;5071931;28;19920;-72
2024/04/06 00:50:23;;;;;;;;;;;;;;;12.58;100.00;100774.06;5074202;28;19916;-72
2024/04/06 00:52:48;;;;;;;;;;;;;;;12.55;100.00;100766.38;5054300;28;19924;-72
2024/04/06 00:55:13;;;;;;;;;;;;;;;12.54;100.00;100775.53;5071427;28;19920;-72
2024/04/06 00:57:38;;;;;;;;;;;;;;;12.54;100.00;100764.72;5054963;28;19916;-72
2024/04/06 01:00:04;;;;;;;;;;;;;;;12.52;100.00;100783.03;5072394;28;20706;-72
2024/04/06 01:02:29;;;;;;;;;;;;;;;12.46;100.00;100777.63;5054037;28;20332;-72
2024/04/06 01:04:54;;;;;;;;;;;;;;;12.48;100.00;100778.25;5055700;28;19913;-72
2024/04/06 01:07:20;;;;;;;;;;;;;;;12.46;100.00;100781.16;5071486;28;20347;-72
2024/04/06 01:09:45;;;;;;;;;;;;;;;12.44;100.00;100777.84;5071515;28;20287;-72
2024/04/06 01:12:10;;;;;;;;;;;;;;;12.44;100.00;100783.25;5071852;28;19916;-72
2024/04/06 01:14:41;;;;;;;;;;;;;;;12.47;100.00;100788.22;5071568;28;19923;-72
2024/04/06 01:17:08;;;;;;;;;;;;;;;12.47;100.00;100788.22;5065930;28;19960;-73
2024/04/06 01:19:33;;;;;;;;;;;;;;;12.51;100.00;100794.03;5073268;28;19939;-73
2024/04/06 01:21:58;;;;;;;;;;;;;;;12.51;100.00;100794.88;5072500;28;19916;-72
2024/04/06 01:24:24;;;;;;;;;;;;;;;12.54;100.00;100791.72;5070662;28;19916;-72
2024/04/06 01:26:49;;;;;;;;;;;;;;;12.59;100.00;100786.53;5054170;28;20003;-72
2024/04/06 01:29:15;;;;;;;;;;;;;;;12.63;100.00;100797.72;5072350;28;20393;-73
2024/04/06 01:31:40;;;;;;;;;;;;;;;12.63;100.00;100786.09;5071132;28;20748;-73
2024/04/06 01:34:08;;;;;;;;;;;;;;;12.65;100.00;100779.44;5072560;28;20455;-72
2024/04/06 01:36:33;;;;;;;;;;;;;;;12.67;100.00;100776.53;5071624;28;19924;-72
2024/04/06 01:38:58;;;;;;;;;;;;;;;12.73;100.00;100791.88;5070204;28;19974;-72
2024/04/06 01:41:26;;;;;;;;;;;;;;;12.73;100.00;100794.56;5071783;28;19950;-72
2024/04/06 01:43:51;;;;;;;;;;;;;;;12.74;100.00;100790.84;5071798;28;19916;-71
2024/04/06 01:46:17;;;;;;;;;;;;;;;12.71;100.00;100794.81;5070456;28;19950;-72
2024/04/06 01:48:42;;;;;;;;;;;;;;;12.70;100.00;100789.63;5072254;28;20007;-72
2024/04/06 01:51:08;;;;;;;;;;;;;;;12.72;100.00;100785.66;5071452;28;20343;-72
2024/04/06 01:53:34;;;;;;;;;;;;;;;12.65;100.00;100781.31;5071122;28;20282;-73
2024/04/06 01:55:59;;;;;;;;;;;;;;;12.69;100.00;100785.25;5071521;28;20260;-73
2024/04/06 01:58:25;;;;;;;;;;;;;;;12.70;100.00;100782.34;5070487;28;19930;-73
2024/04/06 02:00:50;;;;;;;;;;;;;;;12.71;100.00;100775.06;5070308;28;19924;-73
2024/04/06 02:03:15;;;;;;;;;;;;;;;12.70;100.00;100776.13;5071746;28;20338;-73
2024/04/06 02:05:40;;;;;;;;;;;;;;;12.68;100.00;100786.31;5069122;28;20402;-73
2024/04/06 02:08:06;;;;;;;;;;;;;;;12.71;100.00;100783.16;5070984;28;20264;-73
2024/04/06 02:10:31;;;;;;;;;;;;;;;12.76;100.00;100782.53;5071692;28;19919;-73
2024/04/06 02:12:56;;;;;;;;;;;;;;;12.73;100.00;100775.66;5071768;28;19920;-73
2024/04/06 02:15:21;;;;;;;;;;;;;;;12.80;100.00;100773.78;5071349;28;19916;-73
2024/04/06 02:17:47;;;;;;;;;;;;;;;12.73;100.00;100778.38;5084145;28;19917;-72
2024/04/06 02:20:14;;;;;;;;;;;;;;;12.73;100.00;100781.06;5088382;28;19921;-73
2024/04/06 02:22:42;;;;;;;;;;;;;;;12.79;100.00;100787.53;5091754;28;19916;-73
2024/04/06 02:25:07;;;;;;;;;;;;;;;12.76;100.00;100774.44;5091830;28;19920;-73
2024/04/06 02:27:39;;;;;;;;;;;;;;;12.65;100.00;100762.41;5087218;28;19939;-73
2024/04/06 02:30:06;;;;;;;;;;;;;;;12.57;100.00;100761.59;5076660;28;19920;-73
2024/04/06 02:32:32;;;;;;;;;;;;;;;12.48;100.00;100762.88;5074957;28;19923;-73
2024/04/06 02:34:57;;;;;;;;;;;;;;;12.45;100.00;100755.19;5073384;28;20296;-73
2024/04/06 02:37:22;;;;;;;;;;;;;;;12.49;100.00;100761.84;5073547;28;19920;-74
2024/04/06 02:39:47;;;;;;;;;;;;;;;12.50;100.00;100765.34;5071395;28;20049;-73
2024/04/06 02:42:13;;;;;;;;;;;;;;;12.47;100.00;100765.78;5073171;28;19955;-73
2024/04/06 02:44:38;;;;;;;;;;;;;;;12.46;100.00;100767.66;5070674;28;20351;-73
2024/04/06 02:47:03;;;;;;;;;;;;;;;12.40;100.00;100755.00;5071140;28;20003;-72
2024/04/06 02:49:29;;;;;;;;;;;;;;;12.28;100.00;100750.25;5072488;28;20009;-71
2024/04/06 02:51:54;;;;;;;;;;;;;;;12.25;100.00;100750.69;5071749;28;20423;-72
2024/04/06 02:54:19;;;;;;;;;;;;;;;12.24;100.00;100749.00;5073882;28;20442;-72
2024/04/06 02:56:45;;;;;;;;;;;;;;;12.20;100.00;100753.16;5075754;28;20340;-72
2024/04/06 02:59:10;;;;;;;;;;;;;;;12.10;100.00;100744.69;5073886;28;19927;-72
2024/04/06 03:01:38;;;;;;;;;;;;;;;12.00;100.00;100738.91;5070483;28;19916;-72
2024/04/06 03:04:03;;;;;;;;;;;;;;;11.90;100.00;100745.50;5075888;28;19970;-72
2024/04/06 03:06:28;;;;;;;;;;;;;;;11.81;100.00;100754.84;5074582;28;19916;-72
2024/04/06 03:08:54;;;;;;;;;;;;;;;11.68;100.00;100752.97;5073939;28;20318;-72
2024/04/06 03:11:19;;;;;;;;;;;;;;;11.60;100.00;100751.31;5075021;28;20171;-72
2024/04/06 03:13:44;;;;;;;;;;;;;;;11.52;100.00;100743.41;5074859;28;19916;-72
2024/04/06 03:16:09;;;;;;;;;;;;;;;11.57;100.00;100742.78;5073028;28;19924;-71
2024/04/06 03:18:35;;;;;;;;;;;;;;;11.44;100.00;100735.53;5074907;28;19923;-73
2024/04/06 03:21:00;;;;;;;;;;;;;;;11.36;100.00;100736.56;5075050;28;19916;-71
2024/04/06 03:23:25;;;;;;;;;;;;;;;11.38;100.00;100726.41;5073487;28;19912;-72
2024/04/06 03:25:50;;;;;;;;;;;;;;;11.40;100.00;100721.63;5074399;28;19919;-72
2024/04/06 03:28:17;;;;;;;;;;;;;;;11.33;100.00;100718.94;5074933;28;19916;-72
2024/04/06 03:30:42;;;;;;;;;;;;;;;11.28;100.00;100718.72;5073132;28;19943;-72
2024/04/06 03:33:08;;;;;;;;;;;;;;;11.24;100.00;100709.38;5074898;28;19920;-73
2024/04/06 03:35:39;;;;;;;;;;;;;;;11.28;100.00;100699.88;5073902;28;20294;-72
2024/04/06 03:38:04;;;;;;;;;;;;;;;11.23;100.00;100691.56;5072627;28;19929;-72
2024/04/06 03:40:30;;;;;;;;;;;;;;;11.23;100.00;100699.66;5074301;28;19916;-72
2024/04/06 03:42:58;;;;;;;;;;;;;;;11.19;100.00;100706.47;5074853;28;19917;-72
2024/04/06 03:45:25;;;;;;;;;;;;;;;11.17;100.00;100705.84;5073356;28;19939;-72
2024/04/06 03:47:50;;;;;;;;;;;;;;;11.18;100.00;100719.13;5074081;28;19916;-72
2024/04/06 03:50:16;;;;;;;;;;;;;;;11.03;100.00;100711.22;5074548;28;19977;-72
2024/04/06 03:52:41;;;;;;;;;;;;;;;10.98;100.00;100712.84;5073325;28;20374;-72
2024/04/06 03:55:06;;;;;;;;;;;;;;;10.94;100.00;100714.28;5074904;28;19939;-72
2024/04/06 03:57:31;;;;;;;;;;;;;;;10.91;100.00;100710.16;5073339;28;19917;-72
2024/04/06 03:59:57;;;;;;;;;;;;;;;10.86;100.00;100699.16;5073287;28;19931;-72
2024/04/06 04:02:22;;;;;;;;;;;;;;;10.82;100.00;100700.56;5074133;28;19916;-72
2024/04/06 04:04:50;;;;;;;;;;;;;;;10.82;100.00;100698.72;5072932;28;20444;-72
2024/04/06 04:07:15;;;;;;;;;;;;;;;10.82;100.00;100703.28;5072762;28;19923;-72
2024/04/06 04:09:41;;;;;;;;;;;;;;;10.81;100.00;100704.28;5073445;28;19916;-72
2024/04/06 04:12:06;;;;;;;;;;;;;;;10.79;100.00;100714.44;5074027;28;19923;-72
2024/04/06 04:14:31;;;;;;;;;;;;;;;10.86;100.00;100723.38;5073344;28;19916;-72
2024/04/06 04:16:56;;;;;;;;;;;;;;;10.84;100.00;100715.50;5073052;28;20476;-73
2024/04/06 04:19:25;;;;;;;;;;;;;;;10.89;100.00;100722.97;5074238;28;20310;-73
2024/04/06 04:21:51;;;;;;;;;;;;;;;10.93;100.00;100716.16;5074242;28;19943;-72
2024/04/06 04:24:18;;;;;;;;;;;;;;;10.95;100.00;100715.94;5073761;28;19919;-72
2024/04/06 04:26:47;;;;;;;;;;;;;;;10.95;100.00;100732.94;5076658;28;20029;-72
2024/04/06 04:29:12;;;;;;;;;;;;;;;10.98;100.00;100737.09;5078377;28;19935;-71
2024/04/06 04:31:38;;;;;;;;;;;;;;;10.92;100.00;100741.44;5075312;28;19920;-72
2024/04/06 04:34:03;;;;;;;;;;;;;;;10.97;100.00;100738.94;5074003;28;19962;-72
2024/04/06 04:36:28;;;;;;;;;;;;;;;10.98;100.00;100732.53;5072509;28;19916;-72
2024/04/06 04:38:54;;;;;;;;;;;;;;;10.96;100.00;100717.63;5072521;28;19916;-72
2024/04/06 04:41:28;;;;;;;;;;;;;;;10.95;100.00;100726.72;5072992;28;19924;-72
2024/04/06 04:43:53;;;;;;;;;;;;;;;10.89;100.00;100733.75;5073239;28;19924;-72
2024/04/06 04:46:18;;;;;;;;;;;;;;;10.83;100.00;100735.41;5072469;28;19916;-73
2024/04/06 04:48:53;;;;;;;;;;;;;;;10.83;100.00;100726.47;5073214;28;19924;-72
2024/04/06 04:51:19;;;;;;;;;;;;;;;10.81;100.00;100718.59;5070212;28;19934;-72
2024/04/06 04:53:44;;;;;;;;;;;;;;;10.88;100.00;100726.72;5071981;28;19920;-72
2024/04/06 04:56:10;;;;;;;;;;;;;;;10.94;100.00;100727.75;5071162;28;19920;-72
2024/04/06 04:58:38;;;;;;;;;;;;;;;10.90;100.00;100720.06;5072339;28;19999;-72
2024/04/06 05:01:03;;;;;;;;;;;;;;;11.00;100.00;100725.06;5071430;28;19963;-73
2024/04/06 05:03:28;;;;;;;;;;;;;;;11.06;100.00;100732.34;5073053;28;19959;-72
2024/04/06 05:05:53;;;;;;;;;;;;;;;11.08;100.00;100726.75;5072619;28;20326;-72
2024/04/06 05:08:18;;;;;;;;;;;;;;;11.10;100.00;100724.69;5061445;28;19927;-71
2024/04/06 05:10:44;;;;;;;;;;;;;;;11.20;100.00;100727.00;5057950;28;19916;-75
2024/04/06 05:13:09;;;;;;;;;;;;;;;11.14;100.00;100722.41;5054463;28;19916;-73
2024/04/06 05:15:34;;;;;;;;;;;;;;;11.11;100.00;100720.16;5070276;28;20427;-73
2024/04/06 05:18:00;;;;;;;;;;;;;;;11.19;100.00;100718.09;5071897;28;20546;-72
2024/04/06 05:20:25;;;;;;;;;;;;;;;11.29;100.00;100723.09;5072622;28;19958;-72
2024/04/06 05:22:50;;;;;;;;;;;;;;;11.45;100.00;100731.81;5072150;28;19975;-72
2024/04/06 05:25:16;;;;;;;;;;;;;;;11.50;100.00;100727.47;5073000;28;19916;-72
2024/04/06 05:27:41;;;;;;;;;;;;;;;11.76;100.00;100715.00;5072414;28;19931;-72
2024/04/06 05:30:06;;;;;;;;;;;;;;;11.92;100.00;100721.84;5070711;28;19995;-72
2024/04/06 05:32:32;;;;;;;;;;;;;;;12.00;100.00;100711.91;5064824;28;19916;-73
2024/04/06 05:34:57;;;;;;;;;;;;;;;12.10;100.00;100706.91;5072530;28;19923;-72
2024/04/06 05:37:26;;;;;;;;;;;;;;;12.21;100.00;100713.53;5068048;28;20136;-72
2024/04/06 05:39:51;;;;;;;;;;;;;;;12.27;100.00;100705.41;5071606;28;20382;-72
2024/04/06 05:42:17;;;;;;;;;;;;;;;12.38;100.00;100697.69;5067680;28;19916;-73
2024/04/06 05:44:42;;;;;;;;;;;;;;;12.52;100.00;100693.06;5070529;28;20271;-73
2024/04/06 05:47:07;;;;;;;;;;;;;;;12.64;100.00;100680.56;5070662;28;20261;-73
2024/04/06 05:49:32;;;;;;;;;;;;;;;12.82;100.00;100670.91;5070149;28;19924;-73
2024/04/06 05:51:58;;;;;;;;;;;;;;;13.03;100.00;100677.88;5062703;28;19924;-73
2024/04/06 05:54:23;;;;;;;;;;;;;;;13.16;100.00;100677.78;5070709;28;20352;-73
2024/04/06 05:56:51;;;;;;;;;;;;;;;13.32;100.00;100678.28;5068550;28;21244;-74
2024/04/06 05:59:16;;;;;;;;;;;;;;;13.43;100.00;100679.47;5065668;28;19916;-73
2024/04/06 06:01:42;;;;;;;;;;;;;;;13.52;100.00;100690.84;5069451;28;20050;-73
2024/04/06 06:04:07;;;;;;;;;;;;;;;13.76;100.00;100690.03;5069802;28;19959;-73
2024/04/06 06:06:33;;;;;;;;;;;;;;;13.67;100.00;100688.63;5069086;28;19993;-73
2024/04/06 06:08:58;;;;;;;;;;;;;;;13.80;100.00;100685.81;5070255;28;19916;-73
2024/04/06 06:11:24;;;;;;;;;;;;;;;14.09;100.00;100680.75;5068833;28;19920;-73
2024/04/06 06:13:49;;;;;;;;;;;;;;;14.19;100.00;100693.75;5068189;28;20360;-73
2024/04/06 06:16:14;;;;;;;;;;;;;;;14.67;100.00;100702.97;5062457;28;20393;-73
2024/04/06 06:18:39;;;;;;;;;;;;;;;15.21;100.00;100718.53;5049920;28;20289;-73
2024/04/06 06:21:05;;;;;;;;;;;;;;;15.51;98.68;100727.69;5049145;28;19966;-73
2024/04/06 06:23:30;;;;;;;;;;;;;;;15.72;95.94;100737.16;5061214;28;19912;-73
2024/04/06 06:25:55;;;;;;;;;;;;;;;15.76;94.58;100735.63;5069262;28;19917;-73
2024/04/06 06:28:21;;;;;;;;;;;;;;;15.73;94.47;100733.38;5071947;28;19922;-73
2024/04/06 06:30:46;;;;;;;;;;;;;;;15.38;95.97;100726.00;5072917;28;20006;-73
2024/04/06 06:33:11;;;;;;;;;;;;;;;15.13;98.11;100699.91;5073924;28;20024;-73
2024/04/06 06:35:37;;;;;;;;;;;;;;;15.52;96.80;100697.63;5072956;28;19916;-73
2024/04/06 06:38:02;;;;;;;;;;;;;;;15.38;95.39;100685.31;5073182;28;20364;-73
2024/04/06 06:40:27;;;;;;;;;;;;;;;15.84;95.02;100700.00;5073862;28;20327;-73
2024/04/06 06:42:53;;;;;;;;;;;;;;;16.81;89.42;100705.88;5073022;28;19963;-73
2024/04/06 06:45:19;;;;;;;;;;;;;;;18.38;81.06;100712.78;5072174;28;20260;-75
2024/04/06 06:47:44;;;;;;;;;;;;;;;19.69;72.82;100712.75;5075583;28;19913;-74
2024/04/06 06:50:10;;;;;;;;;;;;;;;20.17;70.56;100716.66;5078120;28;19991;-73
2024/04/06 06:52:36;;;;;;;;;;;;;;;19.82;68.17;100708.75;5073420;28;19923;-73
2024/04/06 06:55:01;;;;;;;;;;;;;;;19.59;68.73;100699.03;5071910;28;19916;-73
2024/04/06 06:57:30;;;;;;;;;;;;;;;18.32;73.74;100698.25;5073024;28;20368;-73
2024/04/06 06:59:55;;;;;;;;;;;;;;;17.75;77.98;100693.88;5072305;28;20419;-73
2024/04/06 07:02:20;;;;;;;;;;;;;;;17.49;79.56;100686.16;5072516;28;20007;-73
2024/04/06 07:04:45;;;;;;;;;;;;;;;17.38;81.15;100693.31;5069224;28;20284;-73
2024/04/06 07:07:11;;;;;;;;;;;;;;;17.23;81.14;100698.50;5071325;28;20340;-73
2024/04/06 07:09:36;;;;;;;;;;;;;;;16.97;82.21;100693.44;5066742;28;19962;-74
2024/04/06 07:12:01;;;;;;;;;;;;;;;16.86;82.04;100698.88;5070372;28;20327;-72
2024/04/06 07:14:26;;;;;;;;;;;;;;;16.85;83.65;100689.91;5071857;28;19965;-73
2024/04/06 07:16:52;;;;;;;;;;;;;;;16.73;83.93;100692.69;5072369;28;20336;-73
2024/04/06 07:19:17;;;;;;;;;;;;;;;16.74;83.74;100713.34;5073429;28;20322;-72
2024/04/06 07:21:43;;;;;;;;;;;;;;;16.54;85.32;100702.88;5070094;28;19920;-74
2024/04/06 07:24:08;;;;;;;;;;;;;;;16.39;86.59;100706.13;5072663;28;20019;-74
2024/04/06 07:26:34;;;;;;;;;;;;;;;16.56;85.64;100700.75;5071041;28;20019;-74
2024/04/06 07:28:59;;;;;;;;;;;;;;;16.70;84.88;100712.19;5070996;28;19962;-73
2024/04/06 07:31:24;;;;;;;;;;;;;;;16.82;84.94;100710.25;5072525;28;20252;-74
2024/04/06 07:33:49;;;;;;;;;;;;;;;17.95;79.72;100699.66;5070668;28;19947;-74
2024/04/06 07:36:15;;;;;;;;;;;;;;;19.72;72.23;100713.31;5071732;28;20359;-74
2024/04/06 07:38:40;;;;;;;;;;;;;;;21.00;63.72;100717.81;5071838;28;20249;-75
2024/04/06 07:41:05;;;;;;;;;;;;;;;21.40;61.89;100718.13;5072001;28;19920;-74
2024/04/06 07:43:30;;;;;;;;;;;;;;;21.86;58.36;100715.41;5070591;28;20331;-75
2024/04/06 07:45:56;;;;;;;;;;;;;;;22.24;57.44;100715.84;5070687;28;19923;-76
2024/04/06 07:48:21;;;;;;;;;;;;;;;22.02;57.26;100718.13;5072797;28;19922;-74
2024/04/06 07:50:47;;;;;;;;;;;;;;;21.44;59.57;100714.59;5071295;28;20275;-74
2024/04/06 07:53:12;;;;;;;;;;;;;;;21.23;60.86;100716.47;5069855;28;19920;-76
2024/04/06 07:55:38;;;;;;;;;;;;;;;22.58;55.78;100717.13;5071883;28;19920;-74
2024/04/06 07:58:03;;;;;;;;;;;;;;;23.35;51.91;100710.38;5071076;28;19913;-74
2024/04/06 08:00:28;;;;;;;;;;;;;;;22.94;52.76;100713.41;5065410;28;19921;-74
2024/04/06 08:02:53;;;;;;;;;;;;;;;22.53;53.36;100704.25;5075541;28;20302;-74
2024/04/06 08:05:18;;;;;;;;;;;;;;;21.82;56.29;100697.88;5080750;28;19998;-73
2024/04/06 08:07:44;;;;;;;;;;;;;;;22.96;53.07;100705.66;5070565;28;19917;-74
2024/04/06 08:10:19;;;;;;;;;;;;;;;23.82;51.42;100709.97;5071970;28;19922;-74
2024/04/06 08:12:44;;;;;;;;;;;;;;;24.57;46.57;100705.03;5054097;28;19999;-74
2024/04/06 08:15:09;;;;;;;;;;;;;;;24.83;45.97;100702.75;5070910;28;20003;-72
2024/04/06 08:17:38;;;;;;;;;;;;;;;25.27;44.72;100689.69;5071793;28;19963;-73
2024/04/06 08:20:04;;;;;;;;;;;;;;;25.05;43.94;100682.06;5068620;28;19938;-73
2024/04/06 08:22:29;;;;;;;;;;;;;;;25.27;43.14;100685.00;5071538;28;19920;-73
2024/04/06 08:24:55;;;;;;;;;;;;;;;25.14;43.40;100669.25;5070941;28;20475;-73
2024/04/06 08:27:21;;;;;;;;;;;;;;;25.35;43.08;100664.19;5070984;28;19950;-73
2024/04/06 08:29:46;;;;;;;;;;;;;;;25.39;42.47;100669.94;5068168;28;19924;-73
2024/04/06 08:32:14;;;;;;;;;;;;;;;25.92;42.30;100673.44;5071440;28;19916;-72
2024/04/06 08:34:39;;;;;;;;;;;;;;;26.18;42.51;100671.81;5070363;28;19982;-73
2024/04/06 08:37:05;;;;;;;;;;;;;;;26.19;42.32;100669.91;5069581;28;19920;-73
2024/04/06 08:39:30;;;;;;;;;;;;;;;26.21;40.48;100662.09;5070166;28;19913;-74
2024/04/06 08:41:55;;;;;;;;;;;;;;;27.21;39.11;100665.94;5070005;28;20386;-73
2024/04/06 08:44:21;;;;;;;;;;;;;;;27.13;39.05;100668.66;5048746;28;20348;-73
2024/04/06 08:46:46;;;;;;;;;;;;;;;26.35;40.13;100664.06;5052430;28;19939;-74
2024/04/06 08:49:12;;;;;;;;;;;;;;;27.29;37.41;100663.53;5070764;28;20395;-74
2024/04/06 08:51:37;;;;;;;;;;;;;;;27.45;37.41;100650.16;5071772;28;20356;-74
2024/04/06 08:54:04;;;;;;;;;;;;;;;26.97;37.28;100648.84;5052939;28;20296;-74
2024/04/06 08:56:29;;;;;;;;;;;;;;;26.99;37.47;100646.59;5073213;28;19924;-74
2024/04/06 08:58:54;;;;;;;;;;;;;;;26.96;37.62;100648.06;5065595;28;19954;-74
2024/04/06 09:01:20;;;;;;;;;;;;;;;26.99;38.42;100658.50;5053589;28;19939;-74
2024/04/06 09:03:45;;;;;;;;;;;;;;;27.52;37.90;100653.31;5070105;28;20465;-74
2024/04/06 09:06:18;;;;;;;;;;;;;;;27.86;36.25;100651.84;5066785;28;19917;-73
2024/04/06 09:08:43;;;;;;;;;;;;;;;26.98;37.17;100639.44;5066047;28;19916;-74
2024/04/06 09:11:12;;;;;;;;;;;;;;;26.95;37.73;100651.94;5066144;28;19924;-72
2024/04/06 09:13:38;;;;;;;;;;;;;;;26.89;37.70;100639.38;5061710;28;19963;-73
2024/04/06 09:16:05;;;;;;;;;;;;;;;27.09;37.57;100629.78;5069234;28;19948;-75
2024/04/06 09:18:36;;;;;;;;;;;;;;;26.83;38.14;100641.44;5055179;28;19916;-73
2024/04/06 09:21:03;;;;;;;;;;;;;;;27.14;38.19;100634.38;5074399;28;19916;-73
2024/04/06 09:23:28;;;;;;;;;;;;;;;27.43;37.03;100622.84;5062261;28;19917;-74
2024/04/06 09:26:03;;;;;;;;;;;;;;;27.63;36.94;100626.19;5047008;28;20448;-75
2024/04/06 09:28:28;;;;;;;;;;;;;;;27.71;36.37;100621.84;5067293;28;19920;-73
2024/04/06 09:30:55;;;;;;;;;;;;;;;28.22;36.74;100614.88;5067370;28;19917;-74
2024/04/06 09:33:20;;;;;;;;;;;;;;;28.11;35.70;100608.00;5067606;28;19969;-73
2024/04/06 09:35:48;;;;;;;;;;;;;;;27.64;36.01;100602.94;5054153;28;20580;-73
2024/04/06 09:38:14;;;;;;;;;;;;;;;27.59;36.11;100598.38;5053408;28;19924;-73
2024/04/06 09:40:47;;;;;;;;;;;;;;;27.63;35.99;100604.06;5065602;28;19970;-73
2024/04/06 09:43:15;;;;;;;;;;;;;;;27.94;36.58;100598.47;5062703;28;20007;-73
2024/04/06 09:45:40;;;;;;;;;;;;;;;27.71;35.64;100591.44;5063304;28;20415;-73
2024/04/06 09:48:09;;;;;;;;;;;;;;;27.56;35.43;100595.44;5065830;28;20003;-73
2024/04/06 09:50:40;;;;;;;;;;;;;;;27.41;35.78;100588.34;5065746;28;19923;-73
2024/04/06 09:53:06;;;;;;;;;;;;;;;27.48;37.51;100575.72;5066097;28;19920;-73
2024/04/06 09:55:31;;;;;;;;;;;;;;;28.42;33.80;100585.72;5067353;28;20017;-74
2024/04/06 09:57:56;;;;;;;;;;;;;;;28.86;33.45;100587.69;5065199;28;20455;-74
2024/04/06 10:00:21;;;;;;;;;;;;;;;28.69;34.42;100577.41;5070657;28;19912;-74
2024/04/06 10:02:49;;;;;;;;;;;;;;;28.78;32.50;100569.94;5068344;28;20394;-74
2024/04/06 10:05:14;;;;;;;;;;;;;;;28.76;33.84;100569.47;5072637;28;19916;-73
2024/04/06 10:07:52;;;;;;;;;;;;;;;28.64;33.40;100556.25;5085714;28;19927;-74
2024/04/06 10:10:18;;;;;;;;;;;;;;;28.87;33.13;100556.91;5068798;28;19913;-74
2024/04/06 10:12:46;;;;;;;;;;;;;;;28.54;33.74;100554.63;5080566;28;19994;-74
2024/04/06 10:15:12;;;;;;;;;;;;;;;27.76;34.06;100550.63;5092528;28;19935;-73
2024/04/06 10:17:40;;;;;;;;;;;;;;;27.69;35.05;100542.78;5072149;28;19920;-73
2024/04/06 10:20:08;;;;;;;;;;;;;;;27.28;34.36;100520.97;5072042;28;19916;-73
2024/04/06 10:22:42;;;;;;;;;;;;;;;27.34;34.59;100536.28;5071695;28;19963;-73
2024/04/06 10:25:07;;;;;;;;;;;;;;;26.96;34.87;100529.28;5070780;28;19916;-73
2024/04/06 10:27:36;;;;;;;;;;;;;;;26.42;36.29;100531.94;5064641;28;19974;-74
2024/04/06 10:30:02;;;;;;;;;;;;;;;25.50;38.36;100538.34;5074170;28;19923;-74
2024/04/06 10:32:27;;;;;;;;;;;;;;;25.67;38.49;100537.69;5053012;28;20767;-72
2024/04/06 10:34:59;;;;;;;;;;;;;;;25.52;37.42;100528.63;5070606;28;20053;-73
2024/04/06 10:37:24;;;;;;;;;;;;;;;25.01;39.56;100521.31;5066955;28;19947;-74
2024/04/06 10:39:50;;;;;;;;;;;;;;;24.77;40.46;100509.31;5052356;28;20398;-73
2024/04/06 10:42:15;;;;;;;;;;;;;;;24.17;39.57;100499.78;5068098;28;19920;-73
2024/04/06 10:44:40;;;;;;;;;;;;;;;23.91;41.06;100515.78;5069933;28;19923;-74
2024/04/06 10:47:09;;;;;;;;;;;;;;;24.06;40.59;100515.59;5067595;28;19924;-73
2024/04/06 10:49:37;;;;;;;;;;;;;;;24.12;40.70;100504.53;5069545;28;19921;-74
2024/04/06 10:52:02;;;;;;;;;;;;;;;24.75;39.32;100503.28;5069220;28;20363;-74
2024/04/06 10:54:28;;;;;;;;;;;;;;;25.19;38.95;100503.88;5070656;28;19927;-74
2024/04/06 10:56:53;;;;;;;;;;;;;;;25.81;37.48;100508.16;5052415;28;19928;-74
2024/04/06 10:59:18;;;;;;;;;;;;;;;26.49;37.25;100499.22;5070185;28;19981;-75
2024/04/06 11:01:43;;;;;;;;;;;;;;;26.74;36.12;100497.75;5071473;28;19928;-72
2024/04/06 11:04:12;;;;;;;;;;;;;;;27.47;34.35;100499.44;5070001;28;19920;-73
2024/04/06 11:06:37;;;;;;;;;;;;;;;28.01;34.41;100500.38;5069807;28;19912;-73
2024/04/06 11:09:06;;;;;;;;;;;;;;;28.09;31.22;100496.78;5073027;28;19916;-73
2024/04/06 11:11:33;;;;;;;;;;;;;;;27.50;33.03;100495.25;5071103;28;19969;-74
2024/04/06 11:14:02;;;;;;;;;;;;;;;26.52;34.21;100490.31;5069849;28;19960;-73
2024/04/06 11:16:28;;;;;;;;;;;;;;;26.01;35.33;100484.88;5073821;28;19920;-73
2024/04/06 11:18:53;;;;;;;;;;;;;;;25.46;35.40;100480.25;5072874;28;19912;-72
2024/04/06 11:21:18;;;;;;;;;;;;;;;24.94;36.36;100472.94;5073089;28;19922;-72
2024/04/06 11:23:43;;;;;;;;;;;;;;;24.43;37.21;100484.81;5068474;28;19917;-72
2024/04/06 11:26:15;;;;;;;;;;;;;;;24.17;39.24;100475.00;5073260;28;19920;-73
2024/04/06 11:28:40;;;;;;;;;;;;;;;23.95;40.00;100461.84;5053839;28;19928;-72
2024/04/06 11:31:05;;;;;;;;;;;;;;;24.91;37.58;100481.00;5073035;28;19920;-73
2024/04/06 11:33:31;;;;;;;;;;;;;;;25.84;35.59;100474.47;5072134;28;19917;-73
2024/04/06 11:35:56;;;;;;;;;;;;;;;26.15;35.23;100476.56;5071389;28;19923;-73
2024/04/06 11:38:21;;;;;;;;;;;;;;;26.38;34.85;100465.53;5074640;28;19912;-72
2024/04/06 11:40:53;;;;;;;;;;;;;;;26.14;35.29;100457.56;5071382;28;19908;-73
2024/04/06 11:43:21;;;;;;;;;;;;;;;25.99;35.13;100453.19;5071239;28;19913;-73
2024/04/06 11:45:47;;;;;;;;;;;;;;;26.40;36.17;100456.94;5072974;28;19917;-71
2024/04/06 11:48:13;;;;;;;;;;;;;;;26.82;35.03;100442.94;5072651;28;19912;-73
2024/04/06 11:50:38;;;;;;;;;;;;;;;27.21;33.45;100430.22;5072226;28;20113;-72
2024/04/06 11:53:04;;;;;;;;;;;;;;;27.91;33.19;100432.34;5077221;28;19923;-72
2024/04/06 11:55:29;;;;;;;;;;;;;;;28.25;32.02;100419.66;5073376;28;19916;-73
2024/04/06 11:57:54;;;;;;;;;;;;;;;28.94;30.44;100431.69;5062319;28;20375;-73
2024/04/06 12:00:20;;;;;;;;;;;;;;;28.96;30.54;100434.13;5077879;28;19924;-73
2024/04/06 12:02:45;;;;;;;;;;;;;;;28.53;31.20;100445.00;5074519;28;20038;-73
2024/04/06 12:05:10;;;;;;;;;;;;;;;27.59;31.35;100432.47;5069173;28;19932;-73
2024/04/06 12:07:38;;;;;;;;;;;;;;;26.68;32.26;100438.28;5072134;28;20232;-72
2024/04/06 12:10:05;;;;;;;;;;;;;;;26.53;33.60;100439.50;5070565;28;19916;-72
2024/04/06 12:12:30;;;;;;;;;;;;;;;26.30;33.13;100422.13;5071377;28;19916;-73
2024/04/06 12:14:55;;;;;;;;;;;;;;;26.52;33.01;100440.63;5071191;28;20011;-73
2024/04/06 12:17:27;;;;;;;;;;;;;;;26.54;32.79;100432.84;5071035;28;19916;-73
2024/04/06 12:19:52;;;;;;;;;;;;;;;26.88;32.65;100430.59;5071431;28;19920;-74
2024/04/06 12:22:19;;;;;;;;;;;;;;;27.26;31.52;100429.28;5071666;28;19917;-73
2024/04/06 12:24:44;;;;;;;;;;;;;;;26.83;32.05;100428.81;5068922;28;19917;-73